Time;durP1;ratioP1;P1;durP2;ratioP2;P2;SDS_P1;SDS_P2;PMS_P1;PMS_P2;Temp;Humidity;BMP_temperature;BMP_pressure;BME280_temperature;BME280_humidity;BME280_pressure;Samples;Min_cycle;Max_cycle;Signal;HPM_P1;HPM_P2
2021/12/10 00:01:39;;;;;;;17.35;5.32;;;;;;;3.44;100.00;99481.44;4980682;28;20058;-72
2021/12/10 00:04:06;;;;;;;16.42;6.43;;;;;;;3.43;100.00;99476.44;4970801;28;20027;-72
2021/12/10 00:06:36;;;;;;;12.20;5.10;;;;;;;3.49;100.00;99477.75;4970261;28;20046;-72
2021/12/10 00:09:13;;;;;;;27.87;7.10;;;;;;;3.46;100.00;99475.78;4970414;28;20034;-72
2021/12/10 00:11:44;;;;;;;18.33;5.47;;;;;;;3.53;100.00;99482.06;4971495;28;20067;-73
2021/12/10 00:14:10;;;;;;;18.50;5.82;;;;;;;3.51;100.00;99471.00;4975711;28;20475;-73
2021/12/10 00:16:37;;;;;;;21.80;4.75;;;;;;;3.58;100.00;99468.53;4978671;28;20044;-71
2021/12/10 00:19:17;;;;;;;21.85;5.78;;;;;;;3.70;100.00;99464.28;4955446;28;20034;-71
2021/12/10 00:21:43;;;;;;;17.17;5.53;;;;;;;3.88;100.00;99462.88;4970572;28;20047;-71
2021/12/10 00:24:10;;;;;;;11.93;4.88;;;;;;;3.70;100.00;99461.63;4981420;28;20030;-70
2021/12/10 00:26:36;;;;;;;16.65;4.95;;;;;;;3.60;100.00;99460.97;4970624;28;20034;-71
2021/12/10 00:29:04;;;;;;;14.43;5.40;;;;;;;3.55;100.00;99455.91;4971183;28;20049;-71
2021/12/10 00:31:53;;;;;;;17.08;5.13;;;;;;;3.73;100.00;99452.97;4975496;28;20494;-71
2021/12/10 00:34:42;;;;;;;24.20;5.35;;;;;;;3.59;100.00;99454.13;4979159;28;20038;-71
2021/12/10 00:37:11;;;;;;;14.13;4.95;;;;;;;3.60;100.00;99439.69;4957036;28;20047;-71
2021/12/10 00:39:52;;;;;;;19.55;5.68;;;;;;;3.75;100.00;99440.09;4973032;28;20047;-71
2021/12/10 00:42:21;;;;;;;14.32;4.97;;;;;;;3.61;100.00;99437.81;4951127;28;20043;-71
2021/12/10 00:44:47;;;;;;;26.25;6.75;;;;;;;3.56;100.00;99433.50;4963520;28;20050;-71
2021/12/10 00:47:13;;;;;;;14.23;5.05;;;;;;;3.55;100.00;99418.66;4975749;28;20049;-71
2021/12/10 00:49:41;;;;;;;21.42;6.05;;;;;;;3.52;100.00;99419.31;4985259;28;20588;-72
2021/12/10 00:52:10;;;;;;;20.05;5.20;;;;;;;3.53;100.00;99412.88;4977566;28;20117;-71
2021/12/10 00:54:35;;;;;;;25.00;5.45;;;;;;;3.54;100.00;99409.09;4980897;28;20165;-70
2021/12/10 00:57:02;;;;;;;10.38;4.75;;;;;;;3.61;100.00;99411.97;4970828;28;20233;-71
2021/12/10 00:59:28;;;;;;;17.30;5.40;;;;;;;3.56;100.00;99406.13;4984197;28;20042;-71
2021/12/10 01:01:54;;;;;;;18.67;5.32;;;;;;;3.63;100.00;99407.09;4988917;28;20053;-71
2021/12/10 01:04:26;;;;;;;33.63;6.93;;;;;;;3.56;100.00;99404.22;4968687;28;20071;-72
2021/12/10 01:06:53;;;;;;;19.17;6.45;;;;;;;3.53;100.00;99390.81;4965347;28;20042;-71
2021/12/10 01:09:25;;;;;;;17.15;5.15;;;;;;;3.55;100.00;99394.69;4983659;28;20030;-71
2021/12/10 01:11:55;;;;;;;19.73;4.78;;;;;;;3.54;100.00;99387.81;4974995;28;20391;-71
2021/12/10 01:14:34;;;;;;;15.98;4.82;;;;;;;3.55;100.00;99388.59;4973868;28;20043;-71
2021/12/10 01:25:38;;;;;;;15.73;4.63;;;;;;;3.50;100.00;99378.22;4946151;28;20048;-71
2021/12/10 01:28:06;;;;;;;15.65;6.15;;;;;;;3.49;100.00;99384.63;4994203;28;20060;-71
2021/12/10 01:30:35;;;;;;;11.68;5.05;;;;;;;3.53;100.00;99385.50;4984255;28;20392;-71
2021/12/10 01:33:08;;;;;;;19.38;5.43;;;;;;;3.52;100.00;99375.97;4970135;28;20260;-71
2021/12/10 01:35:40;;;;;;;10.63;5.10;;;;;;;3.53;100.00;99374.84;4985860;28;20064;-71
2021/12/10 01:38:08;;;;;;;17.27;4.82;;;;;;;3.50;100.00;99365.66;4965749;28;20031;-71
2021/12/10 01:40:38;;;;;;;13.02;5.45;;;;;;;3.53;100.00;99370.31;4972076;28;20042;-71
2021/12/10 01:43:07;;;;;;;15.18;5.32;;;;;;;3.56;100.00;99369.63;4975101;28;20100;-71
2021/12/10 01:45:36;;;;;;;16.88;5.28;;;;;;;3.52;100.00;99365.34;4981937;28;20062;-71
2021/12/10 01:48:06;;;;;;;17.85;4.03;;;;;;;3.47;100.00;99360.25;4973868;28;20373;-71
2021/12/10 01:50:34;;;;;;;11.88;4.55;;;;;;;3.49;100.00;99363.34;4972849;28;20031;-71
2021/12/10 01:53:03;;;;;;;16.45;6.32;;;;;;;3.52;100.00;99352.03;4979084;28;20034;-71
2021/12/10 01:55:32;;;;;;;25.00;6.38;;;;;;;3.63;100.00;99348.53;4983610;28;20035;-71
2021/12/10 01:57:58;;;;;;;17.25;5.30;;;;;;;3.55;100.00;99338.81;4972626;28;20039;-71
2021/12/10 02:00:32;;;;;;;14.30;4.95;;;;;;;3.65;100.00;99333.00;4979283;28;20470;-71
2021/12/10 02:02:58;;;;;;;17.15;5.90;;;;;;;3.60;100.00;99343.13;4978420;28;20049;-71
2021/12/10 02:05:24;;;;;;;14.35;5.53;;;;;;;3.59;100.00;99331.72;4979426;28;20030;-70
2021/12/10 02:07:54;;;;;;;17.77;5.00;;;;;;;3.56;100.00;99321.72;4973389;28;20038;-71
2021/12/10 02:10:22;;;;;;;12.77;5.82;;;;;;;3.60;100.00;99327.16;4970906;28;20049;-70
2021/12/10 02:12:48;;;;;;;16.92;4.93;;;;;;;3.59;100.00;99326.38;4982833;28;20065;-72
2021/12/10 02:15:14;;;;;;;15.55;5.38;;;;;;;3.55;100.00;99324.75;4985859;28;20035;-71
2021/12/10 02:17:49;;;;;;;17.27;5.88;;;;;;;3.56;100.00;99327.06;4972648;28;20199;-70
2021/12/10 02:20:32;;;;;;;14.50;4.40;;;;;;;3.55;100.00;99327.41;4968176;28;20030;-71
2021/12/10 02:22:59;;;;;;;19.50;6.10;;;;;;;3.56;100.00;99319.06;4975126;28;20037;-70
2021/12/10 02:25:27;;;;;;;19.75;5.07;;;;;;;3.61;100.00;99315.41;4973016;28;20050;-71
2021/12/10 02:27:53;;;;;;;17.30;5.95;;;;;;;3.56;100.00;99318.31;4977244;28;20096;-71
2021/12/10 02:30:20;;;;;;;15.30;5.85;;;;;;;3.54;100.00;99304.56;4967949;28;20110;-71
2021/12/10 02:32:45;;;;;;;21.08;5.25;;;;;;;3.50;100.00;99306.38;4954038;28;20046;-71
2021/12/10 02:35:14;;;;;;;14.55;5.13;;;;;;;3.58;100.00;99297.47;4979972;28;20035;-70
2021/12/10 02:37:41;;;;;;;11.73;4.88;;;;;;;3.57;100.00;99304.66;4973675;28;20097;-71
2021/12/10 02:40:09;;;;;;;12.35;4.75;;;;;;;3.68;100.00;99311.03;4972541;28;20819;-71
2021/12/10 02:42:34;;;;;;;19.15;5.68;;;;;;;3.64;100.00;99304.06;4974894;28;20421;-71
2021/12/10 02:45:00;;;;;;;13.50;6.00;;;;;;;3.59;100.00;99299.00;4979299;28;20030;-71
2021/12/10 02:47:26;;;;;;;21.40;6.32;;;;;;;3.63;100.00;99299.88;4973143;28;20035;-71
2021/12/10 02:49:51;;;;;;;9.93;4.80;;;;;;;3.77;100.00;99304.78;4970050;28;20515;-71
2021/12/10 02:52:19;;;;;;;22.80;5.38;;;;;;;3.64;100.00;99296.84;4976294;28;20049;-71
2021/12/10 02:54:45;;;;;;;26.95;6.15;;;;;;;3.58;100.00;99300.88;4986144;28;20400;-71
2021/12/10 02:57:14;;;;;;;22.88;5.72;;;;;;;3.59;100.00;99309.63;4971313;28;20038;-71
2021/12/10 02:59:40;;;;;;;19.08;5.30;;;;;;;3.69;100.00;99293.16;4987678;28;20176;-71
2021/12/10 03:02:13;;;;;;;17.00;4.78;;;;;;;3.64;100.00;99301.41;4974656;28;20517;-71
2021/12/10 03:04:38;;;;;;;12.98;5.47;;;;;;;3.73;100.00;99309.22;4977624;28;20170;-71
2021/12/10 03:07:11;;;;;;;18.25;5.72;;;;;;;3.66;100.00;99299.16;4972333;28;20543;-71
2021/12/10 03:09:43;;;;;;;20.48;6.00;;;;;;;3.70;100.00;99291.28;4969081;28;20064;-71
2021/12/10 03:12:11;;;;;;;14.93;4.47;;;;;;;3.59;100.00;99296.34;4983810;28;20168;-71
2021/12/10 03:14:39;;;;;;;13.63;4.60;;;;;;;3.55;100.00;99290.94;4977943;28;20050;-71
2021/12/10 03:17:09;;;;;;;15.73;5.15;;;;;;;3.63;100.00;99292.66;4971923;28;20045;-71
2021/12/10 03:19:35;;;;;;;13.07;4.70;;;;;;;3.62;100.00;99293.75;4966118;28;20096;-71
2021/12/10 03:22:01;;;;;;;24.40;5.60;;;;;;;3.58;100.00;99282.25;4972846;28;20074;-71
2021/12/10 03:24:28;;;;;;;19.55;6.07;;;;;;;3.67;100.00;99282.88;4971728;28;20423;-71
2021/12/10 03:26:57;;;;;;;10.13;5.00;;;;;;;3.68;100.00;99275.66;4970905;28;20373;-72
2021/12/10 03:29:26;;;;;;;15.90;5.07;;;;;;;3.58;100.00;99279.59;4973180;28;20491;-71
2021/12/10 03:31:57;;;;;;;13.00;4.93;;;;;;;3.72;100.00;99275.75;4973214;28;20042;-71
2021/12/10 03:34:22;;;;;;;12.13;3.90;;;;;;;3.59;100.00;99273.16;4970623;28;20046;-71
2021/12/10 03:36:51;;;;;;;17.65;6.40;;;;;;;3.79;100.00;99270.59;4970493;28;20031;-71
2021/12/10 03:39:20;;;;;;;16.52;5.65;;;;;;;3.63;100.00;99268.72;4979878;28;20045;-71
2021/12/10 03:41:46;;;;;;;24.38;5.45;;;;;;;3.53;100.00;99263.88;4969152;28;20038;-71
2021/12/10 03:44:12;;;;;;;22.73;5.60;;;;;;;3.54;100.00;99276.06;4961930;28;20153;-71
2021/12/10 03:46:39;;;;;;;16.05;5.45;;;;;;;3.49;100.00;99273.66;4976460;28;20071;-71
2021/12/10 03:49:06;;;;;;;15.32;5.32;;;;;;;3.46;100.00;99273.56;4980496;28;20543;-71
2021/12/10 03:51:34;;;;;;;19.63;5.13;;;;;;;3.65;100.00;99269.13;4972247;28;20039;-71
2021/12/10 03:53:59;;;;;;;20.35;5.68;;;;;;;3.66;100.00;99283.97;4985719;28;20046;-71
2021/12/10 03:56:28;;;;;;;15.43;6.07;;;;;;;3.64;100.00;99280.88;4985243;28;20043;-71
2021/12/10 03:58:56;;;;;;;13.13;5.00;;;;;;;3.60;100.00;99277.34;4966714;28;20039;-71
2021/12/10 04:01:30;;;;;;;9.25;3.85;;;;;;;3.53;100.00;99284.41;4971247;28;20039;-70
2021/12/10 04:03:59;;;;;;;19.42;5.68;;;;;;;3.50;100.00;99275.19;4979942;28;20027;-71
2021/12/10 04:06:25;;;;;;;23.55;6.40;;;;;;;3.53;100.00;99271.88;4977828;28;20049;-71
2021/12/10 04:08:51;;;;;;;19.63;5.90;;;;;;;3.52;100.00;99277.53;4971401;28;20109;-71
2021/12/10 04:11:18;;;;;;;20.50;5.05;;;;;;;3.47;100.00;99270.56;4971200;28;20558;-71
2021/12/10 04:13:46;;;;;;;20.35;5.38;;;;;;;3.58;100.00;99260.97;4971144;28;20042;-70
2021/12/10 04:16:11;;;;;;;16.80;5.95;;;;;;;3.62;100.00;99282.34;4971616;28;20525;-71
2021/12/10 04:18:38;;;;;;;17.23;5.20;;;;;;;3.61;100.00;99273.59;4961269;28;20059;-71
2021/12/10 04:21:07;;;;;;;15.20;4.85;;;;;;;3.64;100.00;99264.91;4976041;28;20047;-71
2021/12/10 04:23:33;;;;;;;17.08;4.88;;;;;;;3.60;100.00;99258.72;4967441;28;20030;-70
2021/12/10 04:25:59;;;;;;;22.05;5.47;;;;;;;3.54;100.00;99262.00;5005623;28;20038;-71
2021/12/10 04:28:24;;;;;;;21.50;3.90;;;;;;;3.66;100.00;99253.91;4980217;28;20105;-71
2021/12/10 04:30:50;;;;;;;11.20;4.28;;;;;;;3.74;100.00;99258.31;4966810;28;20499;-71
2021/12/10 04:33:22;;;;;;;16.33;5.93;;;;;;;3.60;100.00;99256.06;4968825;28;20118;-71
2021/12/10 04:35:50;;;;;;;16.33;5.10;;;;;;;3.61;100.00;99254.97;4966679;28;20043;-71
2021/12/10 04:38:18;;;;;;;14.43;5.85;;;;;;;3.56;100.00;99257.88;4969218;28;20034;-71
2021/12/10 04:40:47;;;;;;;18.55;5.30;;;;;;;3.57;100.00;99248.00;4968052;28;20031;-71
2021/12/10 04:43:15;;;;;;;14.95;5.57;;;;;;;3.55;100.00;99250.22;4970287;28;20030;-71
2021/12/10 04:45:40;;;;;;;22.17;6.32;;;;;;;3.51;100.00;99246.72;4969626;28;20554;-71
2021/12/10 04:48:06;;;;;;;17.48;5.05;;;;;;;3.59;100.00;99235.91;4966912;28;20054;-71
2021/12/10 04:50:33;;;;;;;14.20;4.50;;;;;;;3.53;100.00;99237.28;4969804;28;20065;-71
2021/12/10 04:53:00;;;;;;;16.83;5.57;;;;;;;3.50;100.00;99239.84;4970368;28;20030;-71
2021/12/10 04:55:26;;;;;;;19.35;4.13;;;;;;;3.59;100.00;99235.13;4954057;28;20133;-71
2021/12/10 04:57:52;;;;;;;15.60;3.88;;;;;;;3.51;100.00;99234.19;4955742;28;20050;-71
2021/12/10 05:00:23;;;;;;;13.73;4.70;;;;;;;3.55;100.00;99223.63;4967900;28;20050;-71
2021/12/10 05:02:49;;;;;;;13.63;5.38;;;;;;;3.56;100.00;99223.28;4980232;28;20495;-72
2021/12/10 05:05:18;;;;;;;23.63;5.78;;;;;;;3.50;100.00;99221.22;4960814;28;20043;-71
2021/12/10 05:07:44;;;;;;;14.30;5.95;;;;;;;3.47;100.00;99220.03;4961718;28;20050;-71
2021/12/10 05:10:11;;;;;;;14.93;4.80;;;;;;;3.50;100.00;99215.91;4961013;28;20033;-71
2021/12/10 05:12:37;;;;;;;13.57;5.25;;;;;;;3.46;100.00;99221.16;4964838;28;20078;-71
2021/12/10 05:15:07;;;;;;;15.00;3.95;;;;;;;3.57;100.00;99208.88;4962418;28;20054;-71
2021/12/10 05:17:34;;;;;;;15.48;5.18;;;;;;;3.48;100.00;99215.47;4968427;28;20062;-71
2021/12/10 05:20:05;;;;;;;16.73;4.28;;;;;;;3.48;100.00;99205.59;4971060;28;20043;-71
2021/12/10 05:22:30;;;;;;;15.60;4.65;;;;;;;3.69;100.00;99197.38;4967390;28;20042;-71
2021/12/10 05:24:56;;;;;;;14.18;4.38;;;;;;;3.63;100.00;99196.06;4970861;28;20504;-71
2021/12/10 05:27:21;;;;;;;14.70;5.55;;;;;;;3.51;100.00;99191.63;4972438;28;20109;-71
2021/12/10 05:29:47;;;;;;;13.88;5.30;;;;;;;3.49;100.00;99193.06;4970425;28;20046;-71
2021/12/10 05:32:16;;;;;;;27.08;5.70;;;;;;;3.49;100.00;99191.19;4964927;28;20043;-71
2021/12/10 05:34:43;;;;;;;11.02;5.13;;;;;;;3.44;100.00;99185.34;4959545;28;20051;-71
2021/12/10 05:37:12;;;;;;;15.60;4.38;;;;;;;3.48;100.00;99189.63;4965412;28;20062;-71
2021/12/10 05:39:37;;;;;;;18.45;4.65;;;;;;;3.45;100.00;99189.53;4968817;28;20041;-71
2021/12/10 05:42:04;;;;;;;16.10;4.68;;;;;;;3.55;100.00;99178.41;4969978;28;20495;-71
2021/12/10 05:44:29;;;;;;;19.52;5.25;;;;;;;3.52;100.00;99185.16;4957477;28;20031;-71
2021/12/10 05:46:55;;;;;;;13.45;4.45;;;;;;;3.53;100.00;99175.31;4965943;28;20149;-71
2021/12/10 05:49:20;;;;;;;18.90;5.47;;;;;;;3.51;100.00;99167.66;4982687;28;20038;-71
2021/12/10 05:51:46;;;;;;;8.07;3.47;;;;;;;3.42;100.00;99167.09;4976387;28;20070;-71
2021/12/10 05:54:11;;;;;;;13.40;4.13;;;;;;;3.58;100.00;99164.41;4970499;28;20031;-71
2021/12/10 05:56:40;;;;;;;9.90;3.90;;;;;;;3.50;100.00;99160.78;4976045;28;20399;-72
2021/12/10 05:59:05;;;;;;;16.50;4.43;;;;;;;3.53;100.00;99162.00;4981197;28;20030;-70
2021/12/10 06:01:32;;;;;;;7.35;3.90;;;;;;;3.54;100.00;99156.31;4970873;28;20498;-70
2021/12/10 06:03:57;;;;;;;12.73;4.30;;;;;;;3.47;100.00;99158.84;4984899;28;20042;-71
2021/12/10 06:06:26;;;;;;;12.35;4.00;;;;;;;3.42;100.00;99161.75;4980656;28;20039;-70
2021/12/10 06:08:52;;;;;;;8.25;3.97;;;;;;;3.41;100.00;99152.22;4974060;28;20046;-71
2021/12/10 06:11:18;;;;;;;15.15;3.83;;;;;;;3.47;100.00;99160.72;4973149;28;20034;-71
2021/12/10 06:13:45;;;;;;;13.40;5.53;;;;;;;3.45;100.00;99155.75;4974737;28;20030;-71
2021/12/10 06:16:11;;;;;;;17.52;4.32;;;;;;;3.43;100.00;99152.66;4960225;28;20081;-71
2021/12/10 06:18:37;;;;;;;11.85;3.90;;;;;;;3.44;100.00;99164.84;4956151;28;20038;-71
2021/12/10 06:21:03;;;;;;;10.43;4.22;;;;;;;3.51;100.00;99151.72;4963513;28;20045;-71
2021/12/10 06:23:28;;;;;;;21.42;5.75;;;;;;;3.52;100.00;99145.25;4954877;28;20043;-71
2021/12/10 06:25:54;;;;;;;24.63;5.07;;;;;;;3.72;100.00;99148.75;4956957;28;20042;-71
2021/12/10 06:28:22;;;;;;;14.27;4.35;;;;;;;3.56;100.00;99145.38;4966602;28;20043;-71
2021/12/10 06:30:50;;;;;;;14.77;5.68;;;;;;;3.51;100.00;99149.03;4963961;28;20034;-71
2021/12/10 06:33:17;;;;;;;14.95;4.60;;;;;;;3.43;100.00;99134.03;4961155;28;20463;-70
2021/12/10 06:35:49;;;;;;;19.27;4.75;;;;;;;3.42;100.00;99145.81;4971754;28;20094;-70
2021/12/10 06:38:16;;;;;;;11.43;3.97;;;;;;;3.40;100.00;99140.06;4974729;28;20421;-71
2021/12/10 06:40:43;;;;;;;10.40;3.80;;;;;;;3.44;100.00;99138.25;4971337;28;20031;-71
2021/12/10 06:43:09;;;;;;;17.45;4.45;;;;;;;3.37;100.00;99131.97;4970798;28;20489;-71
2021/12/10 06:45:36;;;;;;;15.50;5.15;;;;;;;3.29;100.00;99125.72;4970389;28;20035;-70
2021/12/10 06:48:04;;;;;;;16.00;4.05;;;;;;;3.37;100.00;99124.75;4980694;28;20044;-71
2021/12/10 06:50:34;;;;;;;12.15;4.30;;;;;;;3.49;100.00;99132.66;4969795;28;20101;-71
2021/12/10 06:53:00;;;;;;;8.45;3.80;;;;;;;3.43;100.00;99131.38;4970588;28;20034;-71
2021/12/10 06:55:28;;;;;;;17.33;5.15;;;;;;;3.47;100.00;99132.22;4969293;28;20045;-71
2021/12/10 06:57:53;;;;;;;15.40;4.05;;;;;;;3.38;100.00;99134.31;4971829;28;20101;-70
2021/12/10 07:00:37;;;;;;;9.52;4.50;;;;;;;3.47;100.00;99132.22;4968100;28;20121;-71
2021/12/10 07:03:05;;;;;;;8.65;3.05;;;;;;;3.39;100.00;99130.50;4968501;28;20038;-71
2021/12/10 07:05:31;;;;;;;21.25;3.85;;;;;;;3.26;100.00;99131.72;4968319;28;20174;-71
2021/12/10 07:07:56;;;;;;;13.30;4.32;;;;;;;3.30;100.00;99129.94;4971639;28;20753;-71
2021/12/10 07:10:22;;;;;;;17.42;4.68;;;;;;;3.33;100.00;99137.22;4968773;28;20125;-71
2021/12/10 07:12:48;;;;;;;10.07;3.75;;;;;;;3.29;100.00;99131.03;4972905;28;20444;-71
2021/12/10 07:15:15;;;;;;;12.90;4.50;;;;;;;3.40;100.00;99132.06;4970798;28;20389;-71
2021/12/10 07:17:45;;;;;;;15.23;4.40;;;;;;;3.28;100.00;99124.19;4969675;28;20293;-71
2021/12/10 07:20:12;;;;;;;15.95;4.85;;;;;;;3.30;100.00;99129.16;4958658;28;20475;-71
2021/12/10 07:22:38;;;;;;;11.35;4.40;;;;;;;3.23;100.00;99127.09;4968821;28;20031;-71
2021/12/10 07:25:08;;;;;;;14.10;4.15;;;;;;;3.30;100.00;99116.63;4967795;28;20026;-71
2021/12/10 07:27:34;;;;;;;11.68;3.97;;;;;;;3.45;100.00;99123.81;4965184;28;20643;-71
2021/12/10 07:29:59;;;;;;;14.77;4.20;;;;;;;3.36;100.00;99135.75;4967941;28;20038;-70
2021/12/10 07:32:28;;;;;;;12.48;3.97;;;;;;;3.39;100.00;99129.72;4962899;28;20081;-70
2021/12/10 07:34:54;;;;;;;13.43;4.63;;;;;;;3.36;100.00;99131.22;4968742;28;20093;-70
2021/12/10 07:37:21;;;;;;;14.73;4.32;;;;;;;3.37;100.00;99131.97;4971593;28;20030;-70
2021/12/10 07:39:47;;;;;;;13.27;4.03;;;;;;;3.32;100.00;99133.00;4973558;28;20454;-70
2021/12/10 07:42:12;;;;;;;10.05;3.97;;;;;;;3.27;100.00;99138.56;4972111;28;20034;-70
2021/12/10 07:44:38;;;;;;;18.98;4.28;;;;;;;3.27;100.00;99141.22;4972385;28;20038;-70
2021/12/10 07:47:09;;;;;;;7.60;3.33;;;;;;;3.28;100.00;99129.50;4983082;28;21824;-70
2021/12/10 07:49:39;;;;;;;14.68;4.90;;;;;;;3.32;100.00;99125.03;4968904;28;20107;-70
2021/12/10 07:52:15;;;;;;;12.48;4.68;;;;;;;3.33;100.00;99137.22;4973986;28;20053;-70
2021/12/10 07:54:46;;;;;;;12.68;4.60;;;;;;;3.40;100.00;99121.44;4964223;28;20061;-70
2021/12/10 07:57:14;;;;;;;7.85;3.60;;;;;;;3.34;100.00;99128.13;4974695;28;20042;-70
2021/12/10 07:59:39;;;;;;;11.80;4.50;;;;;;;3.34;100.00;99127.34;4972170;28;20118;-70
2021/12/10 08:02:05;;;;;;;12.43;4.43;;;;;;;3.47;100.00;99124.25;4980380;28;20117;-70
2021/12/10 08:04:31;;;;;;;8.48;4.80;;;;;;;3.45;100.00;99128.34;4972601;28;20026;-70
2021/12/10 08:06:57;;;;;;;11.68;4.88;;;;;;;3.43;100.00;99127.94;4966889;28;20031;-70
2021/12/10 08:09:22;;;;;;;12.77;3.63;;;;;;;3.39;100.00;99121.75;4960363;28;20122;-70
2021/12/10 08:11:47;;;;;;;10.73;4.68;;;;;;;3.60;100.00;99119.59;4978807;28;20050;-70
2021/12/10 08:14:13;;;;;;;10.07;3.70;;;;;;;3.51;100.00;99122.44;4990857;28;20062;-70
2021/12/10 08:16:39;;;;;;;12.15;3.72;;;;;;;3.53;100.00;99128.19;4989817;28;20034;-70
2021/12/10 08:19:06;;;;;;;20.75;4.40;;;;;;;3.46;100.00;99125.38;4969877;28;20435;-70
2021/12/10 08:21:32;;;;;;;16.63;4.82;;;;;;;3.56;100.00;99118.75;4981889;28;20395;-70
2021/12/10 08:23:58;;;;;;;7.60;2.83;;;;;;;3.59;100.00;99120.72;4970396;28;20031;-70
2021/12/10 08:26:23;;;;;;;17.35;4.65;;;;;;;3.66;100.00;99126.97;4971106;28;20082;-70
2021/12/10 08:28:49;;;;;;;12.73;3.17;;;;;;;3.60;100.00;99117.69;4970874;28;20065;-70
2021/12/10 08:31:16;;;;;;;11.57;3.92;;;;;;;3.64;100.00;99117.78;4970799;28;20035;-70
2021/12/10 08:33:47;;;;;;;17.90;4.50;;;;;;;3.55;100.00;99112.66;4971131;28;20053;-70
2021/12/10 08:36:12;;;;;;;11.32;3.90;;;;;;;3.53;100.00;99124.75;4962825;28;20154;-70
2021/12/10 08:38:39;;;;;;;14.82;4.63;;;;;;;3.62;100.00;99120.78;4979077;28;20532;-70
2021/12/10 08:41:09;;;;;;;13.23;4.53;;;;;;;3.64;100.00;99121.22;4982977;28;20510;-70
2021/12/10 08:43:35;;;;;;;23.20;4.97;;;;;;;3.59;100.00;99118.84;4970447;28;20496;-70
2021/12/10 08:46:01;;;;;;;14.80;5.00;;;;;;;3.64;100.00;99115.09;4970651;28;20105;-71
2021/12/10 08:48:29;;;;;;;9.98;3.85;;;;;;;3.60;100.00;99116.94;4983369;28;20104;-71
2021/12/10 08:50:59;;;;;;;11.65;4.72;;;;;;;3.70;100.00;99116.38;4978073;28;20407;-70
2021/12/10 08:53:24;;;;;;;10.80;4.50;;;;;;;3.71;100.00;99125.94;4970834;28;20571;-71
2021/12/10 08:55:53;;;;;;;8.70;3.38;;;;;;;3.81;100.00;99127.28;4969401;28;20117;-71
2021/12/10 08:58:20;;;;;;;12.65;4.30;;;;;;;3.79;100.00;99121.53;4988474;28;20038;-71
2021/12/10 09:00:56;;;;;;;17.75;5.03;;;;;;;3.76;100.00;99114.22;4977228;28;20443;-70
2021/12/10 09:03:22;;;;;;;15.57;5.00;;;;;;;3.81;100.00;99117.41;4962067;28;20034;-71
2021/12/10 09:05:47;;;;;;;10.20;4.05;;;;;;;3.81;100.00;99111.31;4973819;28;20031;-70
2021/12/10 09:08:13;;;;;;;8.60;4.47;;;;;;;3.77;100.00;99108.56;4973388;28;20042;-71
2021/12/10 09:10:43;;;;;;;17.45;3.83;;;;;;;3.74;100.00;99109.25;4977862;28;20100;-71
2021/12/10 09:13:13;;;;;;;11.05;3.70;;;;;;;3.84;100.00;99113.28;4961873;28;20038;-71
2021/12/10 09:15:42;;;;;;;11.27;4.45;;;;;;;4.00;100.00;99108.69;4973628;28;20038;-71
2021/12/10 09:18:09;;;;;;;15.73;4.03;;;;;;;3.99;100.00;99109.81;4973190;28;20113;-70
2021/12/10 09:20:39;;;;;;;12.88;3.70;;;;;;;3.92;100.00;99110.41;4978202;28;20038;-71
2021/12/10 09:23:08;;;;;;;10.90;3.63;;;;;;;3.86;100.00;99105.72;4971509;28;20049;-71
2021/12/10 09:25:38;;;;;;;18.08;3.50;;;;;;;4.00;100.00;99111.34;4971351;28;20042;-70
2021/12/10 09:28:04;;;;;;;6.65;3.00;;;;;;;4.03;100.00;99116.72;4977474;28;20050;-71
2021/12/10 09:30:31;;;;;;;15.63;4.05;;;;;;;4.05;100.00;99108.38;4974461;28;20043;-71
2021/12/10 09:32:57;;;;;;;12.93;4.03;;;;;;;4.04;100.00;99112.97;4974618;28;20046;-70
2021/12/10 09:35:27;;;;;;;11.65;3.70;;;;;;;4.04;100.00;99110.31;4961782;28;20780;-70
2021/12/10 09:37:52;;;;;;;15.32;5.13;;;;;;;4.13;100.00;99108.19;4980618;28;20483;-71
2021/12/10 09:40:23;;;;;;;18.10;4.82;;;;;;;4.14;100.00;99100.97;4975111;28;20035;-71
2021/12/10 09:42:48;;;;;;;9.95;3.25;;;;;;;4.15;100.00;99110.50;4958319;28;20062;-71
2021/12/10 09:45:17;;;;;;;11.57;3.58;;;;;;;4.04;100.00;99101.53;4965471;28;20050;-71
2021/12/10 09:47:43;;;;;;;11.70;3.17;;;;;;;4.06;100.00;99104.63;4981848;28;20049;-71
2021/12/10 09:50:10;;;;;;;15.30;3.92;;;;;;;4.08;100.00;99105.03;4985070;28;20039;-71
2021/12/10 09:52:37;;;;;;;15.73;4.60;;;;;;;4.06;100.00;99110.72;4970134;28;20034;-70
2021/12/10 09:55:05;;;;;;;16.27;4.43;;;;;;;4.09;100.00;99098.59;4983657;28;20026;-71
2021/12/10 09:57:34;;;;;;;10.25;4.60;;;;;;;4.14;100.00;99093.75;4970913;28;20229;-70
2021/12/10 10:00:06;;;;;;;13.57;3.55;;;;;;;4.21;100.00;99090.47;4970159;28;20034;-71
2021/12/10 10:02:39;;;;;;;13.77;3.25;;;;;;;4.05;100.00;99084.41;4969555;28;20066;-71
2021/12/10 10:05:07;;;;;;;13.73;4.45;;;;;;;4.22;100.00;99076.78;4974176;28;20041;-71
2021/12/10 10:07:33;;;;;;;10.30;4.47;;;;;;;4.19;100.00;99076.72;4971733;28;20038;-72
2021/12/10 10:10:15;;;;;;;10.30;3.58;;;;;;;4.32;100.00;99067.47;4973665;28;20097;-70
2021/12/10 10:12:43;;;;;;;10.57;3.28;;;;;;;4.12;100.00;99068.59;4973570;28;20731;-71
2021/12/10 10:15:16;;;;;;;15.10;3.28;;;;;;;4.23;100.00;99062.38;4973278;28;20057;-71
2021/12/10 10:17:42;;;;;;;11.18;3.97;;;;;;;4.28;100.00;99058.63;4970129;28;20045;-70
2021/12/10 10:20:11;;;;;;;19.95;4.47;;;;;;;4.25;100.00;99059.34;4984541;28;20026;-71
2021/12/10 10:22:37;;;;;;;7.30;2.95;;;;;;;4.27;100.00;99063.19;4978894;28;20026;-71
2021/12/10 10:25:07;;;;;;;11.13;3.45;;;;;;;4.15;100.00;99058.00;4972201;28;20145;-70
2021/12/10 10:27:35;;;;;;;14.88;4.10;;;;;;;4.09;100.00;99058.63;4975288;28;20113;-71
2021/12/10 10:30:05;;;;;;;17.08;4.25;;;;;;;4.15;100.00;99054.56;4980622;28;20046;-71
2021/12/10 10:32:33;;;;;;;9.75;3.85;;;;;;;4.18;100.00;99049.31;4972214;28;20030;-71
2021/12/10 10:35:04;;;;;;;7.80;3.35;;;;;;;4.27;100.00;99043.78;4972063;28;20434;-72
2021/12/10 10:37:31;;;;;;;11.52;4.72;;;;;;;4.16;100.00;99034.81;4975801;28;20178;-72
2021/12/10 10:39:57;;;;;;;10.20;3.58;;;;;;;4.22;100.00;99044.81;4971862;28;20461;-72
2021/12/10 10:42:26;;;;;;;12.48;4.00;;;;;;;4.36;100.00;99047.75;4988969;28;20034;-72
2021/12/10 10:44:54;;;;;;;12.98;4.22;;;;;;;4.39;100.00;99039.03;4972741;28;20062;-71
2021/12/10 10:47:23;;;;;;;10.30;4.15;;;;;;;4.46;100.00;99043.75;4970614;28;20035;-71
2021/12/10 10:50:21;;;;;;;19.17;4.13;;;;;;;4.40;100.00;99035.28;4982614;28;20042;-72
2021/12/10 10:52:51;;;;;;;10.27;4.05;;;;;;;4.30;100.00;99027.06;4971755;28;20476;-71
2021/12/10 10:55:29;;;;;;;15.18;3.65;;;;;;;4.35;100.00;99032.13;4984479;28;20117;-72
2021/12/10 10:58:00;;;;;;;13.20;4.35;;;;;;;4.36;100.00;99033.66;4975587;28;20031;-71
2021/12/10 11:01:01;;;;;;;8.57;3.80;;;;;;;4.38;100.00;99031.41;4970576;28;20042;-71
2021/12/10 11:03:39;;;;;;;8.98;3.20;;;;;;;4.32;100.00;99022.16;4967482;28;20704;-72
2021/12/10 11:06:17;;;;;;;10.75;3.97;;;;;;;4.30;100.00;99011.09;4964293;28;20030;-72
2021/12/10 11:08:48;;;;;;;14.30;3.45;;;;;;;4.32;100.00;99019.50;4985361;28;20404;-72
2021/12/10 11:11:29;;;;;;;11.88;3.83;;;;;;;4.33;100.00;99018.41;4973808;28;20129;-72
2021/12/10 11:14:01;;;;;;;12.48;3.15;;;;;;;4.49;100.00;99029.72;4970302;28;20074;-72
2021/12/10 11:16:29;;;;;;;7.07;3.03;;;;;;;4.46;100.00;99027.75;4965558;28;20556;-72
2021/12/10 11:19:04;;;;;;;11.30;4.03;;;;;;;4.41;100.00;99026.16;4976344;28;20052;-72
2021/12/10 11:21:36;;;;;;;11.73;4.78;;;;;;;4.51;100.00;99027.47;4969442;28;20042;-71
2021/12/10 11:24:37;;;;;;;5.93;3.13;;;;;;;4.54;100.00;99026.75;4972060;28;20031;-72
2021/12/10 11:27:12;;;;;;;9.15;3.70;;;;;;;4.55;100.00;99015.75;4977859;28;20054;-71
2021/12/10 11:29:40;;;;;;;9.65;3.60;;;;;;;4.52;100.00;99010.34;4987132;28;20172;-71
2021/12/10 11:32:08;;;;;;;11.20;4.30;;;;;;;4.68;100.00;99010.25;4977244;28;20503;-72
2021/12/10 11:34:54;;;;;;;13.90;4.40;;;;;;;4.66;100.00;98999.16;4965277;28;20050;-72
2021/12/10 11:37:47;;;;;;;8.25;2.88;;;;;;;4.71;100.00;98996.97;4972916;28;20042;-71
2021/12/10 11:40:44;;;;;;;14.07;2.97;;;;;;;4.80;100.00;99000.16;4969827;28;20049;-71
2021/12/10 11:43:31;;;;;;;12.10;3.50;;;;;;;4.87;100.00;99005.63;4971793;28;20081;-72